createdAt,value
2023-05-01T00:01:49.877Z,9.10
2023-05-01T00:04:18.489Z,9.10
2023-05-01T00:06:49.748Z,9.10
2023-05-01T00:09:20.973Z,9.10
2023-05-01T00:11:49.122Z,9.00
2023-05-01T00:14:17.107Z,9.10
2023-05-01T00:16:45.213Z,9.10
2023-05-01T00:19:13.776Z,9.10
2023-05-01T00:21:41.864Z,9.10
2023-05-01T00:24:09.889Z,9.10
2023-05-01T00:26:38.113Z,9.00
2023-05-01T00:29:06.114Z,8.90
2023-05-01T00:31:34.253Z,8.80
2023-05-01T00:34:02.518Z,8.80
2023-05-01T00:36:30.586Z,8.90
2023-05-01T00:38:58.577Z,8.90
2023-05-01T00:41:26.740Z,8.70
2023-05-01T00:43:54.974Z,8.60
2023-05-01T00:46:23.192Z,8.50
2023-05-01T00:48:51.419Z,8.60
2023-05-01T00:51:19.976Z,8.60
2023-05-01T00:53:47.969Z,8.50
2023-05-01T00:56:16.606Z,8.40
2023-05-01T00:58:46.484Z,8.50
2023-05-01T01:01:14.682Z,8.40
2023-05-01T01:03:43.158Z,8.50
2023-05-01T01:06:33.690Z,8.50
2023-05-01T01:09:09.262Z,8.50
2023-05-01T01:11:52.901Z,8.30
2023-05-01T01:14:26.500Z,8.20
2023-05-01T01:16:58.364Z,8.20
2023-05-01T01:19:27.185Z,8.20
2023-05-01T01:21:56.889Z,8.10
2023-05-01T01:24:37.519Z,8.10
2023-05-01T01:27:08.432Z,8.00
2023-05-01T01:29:39.321Z,8.00
2023-05-01T01:32:25.417Z,8.00
2023-05-01T01:34:58.765Z,8.00
2023-05-01T01:37:38.422Z,8.00
2023-05-01T01:40:08.355Z,8.00
2023-05-01T01:42:38.992Z,8.00
2023-05-01T01:45:12.139Z,8.00
2023-05-01T01:47:42.886Z,8.00
2023-05-01T01:50:12.243Z,8.00
2023-05-01T01:52:41.972Z,8.00
2023-05-01T01:55:12.377Z,8.10
2023-05-01T01:57:41.306Z,8.10
2023-05-01T02:00:12.432Z,8.00
2023-05-01T02:02:47.320Z,8.00
2023-05-01T02:05:17.353Z,7.80
2023-05-01T02:07:48.086Z,7.80
2023-05-01T02:10:17.432Z,7.90
2023-05-01T02:12:49.891Z,7.90
2023-05-01T02:15:18.778Z,8.00
2023-05-01T02:17:51.075Z,7.90
2023-05-01T02:20:22.726Z,7.90
2023-05-01T02:22:52.071Z,7.90
2023-05-01T02:25:20.167Z,7.80
2023-05-01T02:27:51.713Z,7.90
2023-05-01T02:30:20.138Z,8.00
2023-05-01T02:32:48.173Z,7.80
2023-05-01T02:35:18.357Z,7.70
2023-05-01T02:37:46.812Z,7.60
2023-05-01T02:40:16.372Z,7.60
2023-05-01T02:42:45.047Z,7.50
2023-05-01T02:45:21.182Z,7.60
2023-05-01T02:47:51.703Z,7.70
2023-05-01T02:50:20.684Z,7.70
2023-05-01T02:52:49.183Z,7.70
2023-05-01T02:55:31.803Z,7.70
2023-05-01T02:58:00.751Z,7.80
2023-05-01T03:00:29.270Z,7.70
2023-05-01T03:02:57.920Z,7.60
2023-05-01T03:05:25.931Z,7.60
2023-05-01T03:07:54.135Z,7.50
2023-05-01T03:10:22.443Z,7.50
2023-05-01T03:12:50.513Z,7.40
2023-05-01T03:15:20.014Z,7.30
2023-05-01T03:17:48.146Z,7.30
2023-05-01T03:20:16.318Z,7.30
2023-05-01T03:22:47.720Z,7.20
2023-05-01T03:25:16.761Z,7.20
2023-05-01T03:27:44.804Z,7.30
2023-05-01T03:30:13.247Z,7.20
2023-05-01T03:32:43.282Z,7.30
2023-05-01T03:35:19.892Z,7.20
2023-05-01T03:37:48.009Z,7.20
2023-05-01T03:40:27.079Z,7.20
2023-05-01T03:43:25.168Z,7.20
2023-05-01T03:45:54.390Z,7.20
2023-05-01T03:48:26.549Z,7.30
2023-05-01T03:50:54.598Z,7.30
2023-05-01T03:53:26.040Z,7.50
2023-05-01T03:55:56.547Z,7.50
2023-05-01T03:58:24.585Z,7.50
2023-05-01T04:00:52.800Z,7.40
2023-05-01T04:03:20.945Z,7.30
2023-05-01T04:05:52.496Z,7.30
2023-05-01T04:08:20.594Z,7.30
2023-05-01T04:10:48.672Z,7.30
2023-05-01T04:13:16.785Z,7.20
2023-05-01T04:15:48.070Z,7.30
2023-05-01T04:18:16.357Z,7.30
2023-05-01T04:20:44.432Z,7.20
2023-05-01T04:23:14.024Z,7.20
2023-05-01T04:25:42.224Z,7.20
2023-05-01T04:28:16.963Z,7.20
2023-05-01T04:30:45.059Z,7.20
2023-05-01T04:33:13.274Z,7.20
2023-05-01T04:35:41.884Z,7.20
2023-05-01T04:38:11.714Z,7.30
2023-05-01T04:40:41.624Z,7.40
2023-05-01T04:43:11.015Z,7.40
2023-05-01T04:45:39.825Z,7.40
2023-05-01T04:48:08.345Z,7.50
2023-05-01T04:50:36.771Z,7.60
2023-05-01T04:53:05.233Z,7.60
2023-05-01T04:55:36.451Z,7.70
2023-05-01T04:58:09.115Z,7.90
2023-05-01T05:00:41.060Z,8.00
2023-05-01T05:03:13.141Z,8.10
2023-05-01T05:05:44.150Z,8.20
2023-05-01T05:08:15.744Z,8.40
2023-05-01T05:10:59.336Z,8.60
2023-05-01T05:13:46.446Z,8.90
2023-05-01T05:16:18.116Z,9.20
2023-05-01T05:18:48.343Z,9.30
2023-05-01T05:21:16.567Z,9.40
2023-05-01T05:23:49.786Z,9.60
2023-05-01T05:26:17.906Z,9.70
2023-05-01T05:28:46.498Z,9.90
2023-05-01T05:31:14.585Z,10.00
2023-05-01T05:33:42.799Z,10.10
2023-05-01T05:36:10.948Z,10.20
2023-05-01T05:38:43.796Z,10.30
2023-05-01T05:41:16.788Z,10.30
2023-05-01T05:43:45.738Z,10.50
2023-05-01T05:46:13.914Z,10.60
2023-05-01T05:48:43.498Z,10.50
2023-05-01T05:51:11.882Z,10.70
2023-05-01T05:53:39.924Z,10.90
2023-05-01T05:56:08.504Z,11.10
2023-05-01T05:58:36.664Z,11.30
2023-05-01T06:01:05.787Z,11.40
2023-05-01T06:03:35.970Z,11.50
2023-05-01T06:06:05.249Z,11.50
2023-05-01T06:08:34.065Z,11.60
2023-05-01T06:11:02.093Z,11.60
2023-05-01T06:13:30.120Z,11.60
2023-05-01T06:15:58.584Z,11.80
2023-05-01T06:18:27.417Z,11.90
2023-05-01T06:20:55.719Z,12.00
2023-05-01T06:23:24.349Z,12.10
2023-05-01T06:26:10.439Z,12.20
2023-05-01T06:28:38.634Z,12.30
2023-05-01T06:31:06.881Z,12.30
2023-05-01T06:33:39.169Z,12.10
2023-05-01T06:36:21.535Z,12.20
2023-05-01T06:38:51.590Z,12.30
2023-05-01T06:41:19.711Z,12.30
2023-05-01T06:43:48.294Z,12.50
2023-05-01T06:46:18.222Z,12.60
2023-05-01T06:48:46.659Z,12.90
2023-05-01T06:51:18.957Z,12.90
2023-05-01T06:53:47.554Z,12.90
2023-05-01T06:56:15.757Z,13.00
2023-05-01T06:58:43.788Z,13.00
2023-05-01T07:01:12.189Z,12.90
2023-05-01T07:03:40.486Z,13.00
2023-05-01T07:06:08.594Z,13.00
2023-05-01T07:08:36.697Z,13.10
2023-05-01T07:11:04.750Z,13.20
2023-05-01T07:13:32.877Z,13.40
2023-05-01T07:16:01.102Z,13.70
2023-05-01T07:18:29.454Z,14.00
2023-05-01T07:20:57.442Z,14.40
2023-05-01T07:23:27.164Z,14.70
2023-05-01T07:25:55.481Z,14.70
2023-05-01T07:28:24.244Z,14.80
2023-05-01T07:30:52.696Z,14.90
2023-05-01T07:33:20.896Z,14.80
2023-05-01T07:35:49.245Z,14.70
2023-05-01T07:38:17.635Z,14.50
2023-05-01T07:40:45.709Z,14.70
2023-05-01T07:43:13.835Z,14.50
2023-05-01T07:45:42.763Z,14.70
2023-05-01T07:48:11.450Z,14.90
2023-05-01T07:50:40.176Z,15.10
2023-05-01T07:53:08.400Z,15.10
2023-05-01T07:55:37.696Z,15.30
2023-05-01T07:58:05.733Z,15.30
2023-05-01T08:00:33.751Z,15.40
2023-05-01T08:03:01.913Z,15.50
2023-05-01T08:05:30.057Z,15.70
2023-05-01T08:07:58.033Z,15.80
2023-05-01T08:10:26.069Z,15.70
2023-05-01T08:12:54.157Z,15.50
2023-05-01T08:15:22.984Z,15.40
2023-05-01T08:17:52.491Z,15.50
2023-05-01T08:20:20.736Z,15.60
2023-05-01T08:22:50.971Z,15.80
2023-05-01T08:25:21.464Z,15.90
2023-05-01T08:27:52.862Z,16.30
2023-05-01T08:30:33.239Z,16.70
2023-05-01T08:33:10.519Z,16.90
2023-05-01T08:35:42.590Z,16.80
2023-05-01T08:38:12.146Z,16.60
2023-05-01T08:40:44.838Z,16.70
2023-05-01T08:43:14.737Z,16.80
2023-05-01T08:45:43.952Z,16.70
2023-05-01T08:48:12.480Z,16.70
2023-05-01T08:50:41.797Z,16.70
2023-05-01T08:53:13.716Z,16.70
2023-05-01T08:55:45.192Z,16.60
2023-05-01T08:58:14.975Z,16.70
2023-05-01T09:00:44.344Z,16.60
2023-05-01T09:03:20.816Z,16.40
2023-05-01T09:05:52.769Z,16.40
2023-05-01T09:08:22.141Z,16.50
2023-05-01T09:10:50.682Z,16.40
2023-05-01T09:13:20.352Z,16.30
2023-05-01T09:15:48.914Z,16.20
2023-05-01T09:18:17.138Z,16.10
2023-05-01T09:20:45.568Z,16.10
2023-05-01T09:23:19.810Z,16.10
2023-05-01T09:25:51.419Z,16.10
2023-05-01T09:28:20.480Z,16.20
2023-05-01T09:30:48.697Z,16.30
2023-05-01T09:33:18.204Z,16.40
2023-05-01T09:35:53.962Z,16.30
2023-05-01T09:38:26.250Z,15.90
2023-05-01T09:40:55.491Z,16.00
2023-05-01T09:43:28.197Z,16.00
2023-05-01T09:46:14.237Z,16.10
2023-05-01T09:48:56.493Z,16.10
2023-05-01T09:51:24.629Z,16.20
2023-05-01T09:53:53.605Z,16.20
2023-05-01T09:56:22.949Z,16.30
2023-05-01T09:58:54.749Z,16.30
2023-05-01T10:01:45.557Z,16.20
2023-05-01T10:04:17.523Z,16.20
2023-05-01T10:06:45.803Z,16.20
2023-05-01T10:09:32.113Z,16.30
2023-05-01T10:12:00.807Z,16.30
2023-05-01T10:14:31.249Z,16.30
2023-05-01T10:16:59.435Z,16.10
2023-05-01T10:19:27.875Z,16.00
2023-05-01T10:21:56.809Z,16.00
2023-05-01T10:24:24.929Z,16.00
2023-05-01T10:26:55.072Z,15.70
2023-05-01T10:29:24.821Z,15.30
2023-05-01T10:31:53.307Z,15.00
2023-05-01T10:34:22.932Z,14.70
2023-05-01T10:36:57.000Z,14.60
2023-05-01T10:39:33.735Z,14.70
2023-05-01T10:42:12.304Z,14.40
2023-05-01T10:44:40.419Z,14.10
2023-05-01T10:47:32.844Z,13.90
2023-05-01T10:50:06.160Z,13.50
2023-05-01T10:52:53.473Z,13.30
2023-05-01T10:55:37.592Z,13.30
2023-05-01T10:58:06.343Z,13.40
2023-05-01T11:00:35.644Z,13.30
2023-05-01T11:03:25.856Z,13.20
2023-05-01T11:06:07.983Z,13.10
2023-05-01T11:08:40.284Z,13.10
2023-05-01T11:11:26.758Z,13.00
2023-05-01T11:14:05.500Z,12.70
2023-05-01T11:16:47.299Z,12.30
2023-05-01T11:19:24.531Z,12.20
2023-05-01T11:21:53.117Z,12.10
2023-05-01T11:24:21.625Z,12.00
2023-05-01T11:26:49.982Z,12.10
2023-05-01T11:29:18.523Z,11.90
2023-05-01T11:31:49.682Z,11.90
2023-05-01T11:34:18.406Z,11.90
2023-05-01T11:36:50.673Z,11.90
2023-05-01T11:39:19.767Z,12.10
2023-05-01T11:41:48.180Z,12.10
2023-05-01T11:44:17.607Z,11.90
2023-05-01T11:46:45.837Z,12.10
2023-05-01T11:49:14.039Z,12.10
2023-05-01T11:51:42.385Z,12.00
2023-05-01T11:54:12.552Z,12.00
2023-05-01T11:56:44.658Z,11.90
2023-05-01T11:59:14.073Z,12.00
2023-05-01T12:01:45.754Z,12.10
2023-05-01T12:04:15.176Z,12.10
2023-05-01T12:06:47.094Z,12.00
2023-05-01T12:09:25.684Z,12.00
2023-05-01T12:11:57.427Z,12.10
2023-05-01T12:14:28.473Z,12.10
2023-05-01T12:16:56.957Z,12.30
2023-05-01T12:19:31.544Z,12.10
2023-05-01T12:22:12.144Z,12.00
2023-05-01T12:24:49.811Z,12.00
2023-05-01T12:27:18.360Z,12.10
2023-05-01T12:29:48.507Z,12.10
2023-05-01T12:32:16.828Z,12.20
2023-05-01T12:34:44.875Z,12.30
2023-05-01T12:37:13.217Z,12.40
2023-05-01T12:39:43.520Z,12.50
2023-05-01T12:42:16.119Z,12.60
2023-05-01T12:44:44.575Z,12.60
2023-05-01T12:47:15.476Z,12.60
2023-05-01T12:49:43.640Z,12.70
2023-05-01T12:52:15.436Z,12.70
2023-05-01T12:54:44.455Z,12.90
2023-05-01T12:57:22.793Z,12.90
2023-05-01T12:59:59.854Z,13.00
2023-05-01T13:02:31.790Z,13.00
2023-05-01T13:05:09.754Z,13.00
2023-05-01T13:07:38.248Z,12.90
2023-05-01T13:10:08.873Z,12.90
2023-05-01T13:12:45.562Z,13.00
2023-05-01T13:15:23.276Z,13.00
2023-05-01T13:17:51.522Z,13.00
2023-05-01T13:20:26.449Z,13.00
2023-05-01T13:22:54.492Z,13.00
2023-05-01T13:25:22.714Z,12.90
2023-05-01T13:27:54.532Z,12.90
2023-05-01T13:30:32.674Z,13.00
2023-05-01T13:33:00.838Z,13.10
2023-05-01T13:35:28.874Z,13.10
2023-05-01T13:37:57.021Z,13.10
2023-05-01T13:40:25.683Z,13.10
2023-05-01T13:42:55.299Z,13.10
2023-05-01T13:45:23.538Z,13.10
2023-05-01T13:47:53.156Z,13.10
2023-05-01T13:50:21.315Z,13.20
2023-05-01T13:52:49.740Z,13.40
2023-05-01T13:55:18.983Z,13.50
2023-05-01T13:57:47.061Z,13.50
2023-05-01T14:00:21.044Z,13.50
2023-05-01T14:02:50.396Z,13.60
2023-05-01T14:05:22.766Z,13.70
2023-05-01T14:07:55.741Z,13.70
2023-05-01T14:10:24.764Z,13.80
2023-05-01T14:12:55.940Z,13.90
2023-05-01T14:15:25.947Z,13.90
2023-05-01T14:17:56.874Z,14.00
2023-05-01T14:20:28.123Z,13.80
2023-05-01T14:22:56.394Z,13.70
2023-05-01T14:25:27.545Z,13.70
2023-05-01T14:27:58.347Z,13.70
2023-05-01T14:33:13.077Z,13.80
2023-05-01T14:35:51.458Z,14.00
2023-05-01T14:38:21.074Z,14.20
2023-05-01T14:40:52.102Z,14.30
2023-05-01T14:43:21.279Z,14.50
2023-05-01T14:45:51.065Z,14.50
2023-05-01T14:48:24.202Z,14.50
2023-05-01T14:50:53.078Z,14.50
2023-05-01T14:53:22.265Z,14.50
2023-05-01T14:55:53.226Z,14.40
2023-05-01T14:58:21.305Z,14.30
2023-05-01T15:00:49.455Z,14.30
2023-05-01T15:03:17.762Z,14.30
2023-05-01T15:05:47.334Z,14.10
2023-05-01T15:08:18.616Z,13.90
2023-05-01T15:10:49.509Z,13.90
2023-05-01T15:13:19.831Z,13.90
2023-05-01T15:15:48.138Z,14.00
2023-05-01T15:18:16.356Z,14.10
2023-05-01T15:20:44.636Z,14.10
2023-05-01T15:23:13.378Z,14.10
2023-05-01T15:25:45.742Z,14.00
2023-05-01T15:28:14.418Z,14.00
2023-05-01T15:30:46.402Z,14.00
2023-05-01T15:33:18.511Z,14.10
2023-05-01T15:35:47.805Z,14.10
2023-05-01T15:38:16.060Z,14.10
2023-05-01T15:40:44.471Z,14.30
2023-05-01T15:43:12.506Z,14.30
2023-05-01T15:45:44.079Z,14.40
2023-05-01T15:48:13.655Z,14.50
2023-05-01T15:50:42.374Z,14.50
2023-05-01T15:53:10.940Z,14.60
2023-05-01T15:55:38.972Z,14.70
2023-05-01T15:58:07.092Z,14.50
2023-05-01T16:00:37.181Z,14.60
2023-05-01T16:03:05.764Z,14.60
2023-05-01T16:05:33.900Z,14.60
2023-05-01T16:08:02.885Z,14.50
2023-05-01T16:10:34.268Z,14.50
2023-05-01T16:13:02.295Z,14.50
2023-05-01T16:15:31.460Z,14.50
2023-05-01T16:17:59.571Z,14.50
2023-05-01T16:20:30.277Z,14.40
2023-05-01T16:23:00.046Z,14.40
2023-05-01T16:25:28.153Z,14.40
2023-05-01T16:27:56.246Z,14.30
2023-05-01T16:30:28.891Z,14.20
2023-05-01T16:32:58.488Z,14.30
2023-05-01T16:35:28.785Z,14.30
2023-05-01T16:37:58.523Z,14.30
2023-05-01T16:40:26.696Z,14.40
2023-05-01T16:42:55.928Z,14.40
2023-05-01T16:45:24.154Z,14.30
2023-05-01T16:47:52.709Z,14.30
2023-05-01T16:50:23.182Z,14.20
2023-05-01T16:52:53.027Z,14.10
2023-05-01T16:55:21.196Z,14.10
2023-05-01T16:57:49.437Z,14.20
2023-05-01T17:00:18.007Z,14.20
2023-05-01T17:02:46.295Z,14.30
2023-05-01T17:05:14.395Z,14.30
2023-05-01T17:07:42.389Z,14.30
2023-05-01T17:10:10.785Z,14.30
2023-05-01T17:12:38.983Z,14.10
2023-05-01T17:15:07.601Z,14.20
2023-05-01T17:17:35.838Z,14.10
2023-05-01T17:20:05.145Z,13.90
2023-05-01T17:22:36.827Z,13.90
2023-05-01T17:25:05.723Z,13.90
2023-05-01T17:27:34.875Z,14.00
2023-05-01T17:30:03.684Z,14.00
2023-05-01T17:32:36.855Z,14.00
2023-05-01T17:35:06.075Z,13.90
2023-05-01T17:37:34.481Z,13.90
2023-05-01T17:40:03.179Z,13.90
2023-05-01T17:42:31.639Z,13.80
2023-05-01T17:44:59.939Z,13.80
2023-05-01T17:47:28.106Z,13.70
2023-05-01T17:49:56.437Z,13.70
2023-05-01T17:52:24.710Z,13.60
2023-05-01T17:54:53.014Z,13.60
2023-05-01T17:57:22.106Z,13.50
2023-05-01T17:59:50.174Z,13.50
2023-05-01T18:02:20.573Z,13.50
2023-05-01T18:04:54.096Z,13.40
2023-05-01T18:07:22.672Z,13.30
2023-05-01T18:09:50.725Z,13.20
2023-05-01T18:12:19.368Z,13.10
2023-05-01T18:14:47.510Z,13.10
2023-05-01T18:17:15.659Z,13.10
2023-05-01T18:19:43.787Z,13.00
2023-05-01T18:22:11.809Z,13.00
2023-05-01T18:24:40.134Z,13.00
2023-05-01T18:27:08.678Z,12.90
2023-05-01T18:29:44.696Z,12.90
2023-05-01T18:32:14.014Z,12.90
2023-05-01T18:34:43.615Z,12.80
2023-05-01T18:37:12.365Z,12.80
2023-05-01T18:39:42.838Z,12.70
2023-05-01T18:42:11.748Z,12.70
2023-05-01T18:44:39.964Z,12.60
2023-05-01T18:47:08.194Z,12.50
2023-05-01T18:49:36.428Z,12.50
2023-05-01T18:52:04.812Z,12.40
2023-05-01T18:54:33.427Z,12.30
2023-05-01T18:57:01.675Z,12.30
2023-05-01T18:59:32.315Z,12.30
2023-05-01T19:02:00.474Z,12.20
2023-05-01T19:04:28.681Z,12.20
2023-05-01T19:06:56.859Z,12.10
2023-05-01T19:09:25.189Z,12.00
2023-05-01T19:11:53.189Z,11.80
2023-05-01T19:14:23.879Z,11.70
2023-05-01T19:16:52.027Z,11.70
2023-05-01T19:19:20.009Z,11.60
2023-05-01T19:21:48.068Z,11.40
2023-05-01T19:24:16.064Z,11.20
2023-05-01T19:26:44.240Z,11.00
2023-05-01T19:29:12.554Z,10.90
2023-05-01T19:31:40.661Z,10.80
2023-05-01T19:34:08.780Z,10.70
2023-05-01T19:36:40.622Z,10.80
2023-05-01T19:39:08.636Z,10.70
2023-05-01T19:41:37.637Z,10.60
2023-05-01T19:44:05.955Z,10.40
2023-05-01T19:46:34.004Z,10.20
2023-05-01T19:49:02.059Z,10.20
2023-05-01T19:51:30.090Z,10.10
2023-05-01T19:53:58.310Z,10.10
2023-05-01T19:56:26.496Z,9.90
2023-05-01T19:58:55.362Z,9.90
2023-05-01T20:01:23.697Z,9.80
2023-05-01T20:03:51.815Z,9.70
2023-05-01T20:06:19.938Z,9.60
2023-05-01T20:08:48.452Z,9.60
2023-05-01T20:11:16.616Z,9.50
2023-05-01T20:13:44.611Z,9.50
2023-05-01T20:16:12.707Z,9.50
2023-05-01T20:18:40.832Z,9.40
2023-05-01T20:21:09.122Z,9.40
2023-05-01T20:23:37.237Z,9.30
2023-05-01T20:26:05.579Z,9.20
2023-05-01T20:28:33.715Z,9.10
2023-05-01T20:31:03.512Z,9.10
2023-05-01T20:33:31.910Z,9.00
2023-05-01T20:36:03.008Z,9.00
2023-05-01T20:38:31.062Z,8.90
2023-05-01T20:40:59.087Z,8.90
2023-05-01T20:43:28.162Z,9.00
2023-05-01T20:45:56.223Z,8.90
2023-05-01T20:48:24.383Z,8.80
2023-05-01T20:50:52.471Z,8.80
2023-05-01T20:53:20.587Z,8.70
2023-05-01T20:55:48.993Z,8.60
2023-05-01T20:58:17.479Z,8.60
2023-05-01T21:00:45.548Z,8.60
2023-05-01T21:03:15.779Z,8.60
2023-05-01T21:05:43.922Z,8.70
2023-05-01T21:08:11.914Z,8.60
2023-05-01T21:10:40.783Z,8.60
2023-05-01T21:13:08.800Z,8.60
2023-05-01T21:15:36.829Z,8.70
2023-05-01T21:18:04.922Z,8.60
2023-05-01T21:20:34.392Z,8.50
2023-05-01T21:23:02.648Z,8.50
2023-05-01T21:25:32.916Z,8.60
2023-05-01T21:28:08.885Z,8.60
2023-05-01T21:30:40.003Z,8.60
2023-05-01T21:33:18.713Z,8.50
2023-05-01T21:35:47.992Z,8.50
2023-05-01T21:38:16.056Z,8.50
2023-05-01T21:40:44.588Z,8.60
2023-05-01T21:43:12.631Z,8.70
2023-05-01T21:45:44.295Z,8.80
2023-05-01T21:48:15.403Z,8.90
2023-05-01T21:50:43.545Z,8.90
2023-05-01T21:53:11.568Z,9.00
2023-05-01T21:55:39.994Z,9.10
2023-05-01T21:58:08.015Z,9.10
2023-05-01T22:00:36.289Z,9.10
2023-05-01T22:03:05.493Z,9.10
2023-05-01T22:05:34.498Z,9.20
2023-05-01T22:08:02.636Z,9.20
2023-05-01T22:10:31.026Z,9.20
2023-05-01T22:12:59.028Z,9.20
2023-05-01T22:15:27.071Z,9.20
2023-05-01T22:17:55.129Z,9.20
2023-05-01T22:20:23.294Z,9.10
2023-05-01T22:22:51.325Z,9.10
2023-05-01T22:25:19.704Z,9.00
2023-05-01T22:27:48.119Z,9.00
2023-05-01T22:30:16.140Z,9.00
2023-05-01T22:32:44.226Z,9.00
2023-05-01T22:35:12.402Z,9.00
2023-05-01T22:37:40.430Z,9.00
2023-05-01T22:40:08.709Z,9.00
2023-05-01T22:42:37.481Z,8.90
2023-05-01T22:45:05.776Z,8.80
2023-05-01T22:47:33.856Z,8.80
2023-05-01T22:50:02.703Z,8.80
2023-05-01T22:52:30.994Z,8.80
2023-05-01T22:54:59.047Z,8.70
2023-05-01T22:57:27.080Z,8.50
2023-05-01T22:59:55.227Z,8.40
2023-05-01T23:02:23.334Z,8.40
2023-05-01T23:04:54.948Z,8.40
2023-05-01T23:07:23.989Z,8.40
2023-05-01T23:09:54.203Z,8.30
2023-05-01T23:12:26.947Z,8.20
2023-05-01T23:14:56.381Z,8.10
2023-05-01T23:17:24.682Z,8.00
2023-05-01T23:19:52.727Z,8.00
2023-05-01T23:22:20.809Z,8.10
2023-05-01T23:24:49.696Z,8.10
2023-05-01T23:27:18.458Z,8.00
2023-05-01T23:29:58.690Z,8.00
2023-05-01T23:32:28.255Z,7.90
2023-05-01T23:34:56.993Z,7.80
2023-05-01T23:37:25.107Z,7.70
2023-05-01T23:39:54.834Z,7.70
2023-05-01T23:42:23.748Z,7.80
2023-05-01T23:44:52.203Z,7.80
2023-05-01T23:47:20.590Z,7.70
2023-05-01T23:49:49.232Z,7.80
2023-05-01T23:52:17.577Z,7.80
2023-05-01T23:54:45.755Z,7.90
2023-05-01T23:57:13.754Z,7.90
2023-05-01T23:59:42.116Z,7.90
